createdAt,value
2023-02-19T00:04:04.848Z,11.99
2023-02-19T00:33:03.220Z,11.82
2023-02-19T01:01:48.892Z,11.41
2023-02-19T01:30:46.579Z,11.38
2023-02-19T01:59:51.622Z,11.03
2023-02-19T02:28:55.552Z,10.69
2023-02-19T02:57:50.480Z,9.84
2023-02-19T03:26:58.757Z,10.1
2023-02-19T03:55:54.159Z,9.93
2023-02-19T04:25:08.452Z,10.14
2023-02-19T04:54:04.694Z,10.05
2023-02-19T05:23:14.534Z,10.01
2023-02-19T05:52:15.525Z,10.02
2023-02-19T06:21:17.465Z,9.64
2023-02-19T06:50:23.583Z,9.69
2023-02-19T07:19:22.261Z,9.68
2023-02-19T07:48:26.498Z,9.85
2023-02-19T08:17:30.655Z,9.93
2023-02-19T08:46:38.915Z,10
2023-02-19T09:15:50.922Z,10.09
2023-02-19T09:44:50.269Z,10.08
2023-02-19T10:14:06.985Z,10.75
2023-02-19T10:43:19.047Z,10.72
2023-02-19T11:12:25.841Z,11.51
2023-02-19T11:41:25.644Z,11.15
2023-02-19T12:10:29.963Z,11.22
2023-02-19T12:39:31.659Z,11.44
2023-02-19T13:09:05.238Z,12.15
2023-02-19T13:37:07.458Z,12.63
2023-02-19T14:06:04.616Z,11.88
2023-02-19T14:35:07.362Z,11.72
2023-02-19T15:04:17.340Z,11.87
2023-02-19T15:33:20.104Z,11.59
2023-02-19T16:02:27.973Z,11.38
2023-02-19T16:31:07.032Z,11.22
2023-02-19T17:00:07.349Z,10.92
2023-02-19T17:29:09.814Z,10.73
2023-02-19T17:58:23.168Z,10.68
2023-02-19T18:27:21.903Z,10.38
2023-02-19T18:55:47.745Z,10.65
2023-02-19T19:24:07.825Z,10.72
2023-02-19T19:52:23.415Z,10.27
2023-02-19T20:20:53.581Z,10.34
2023-02-19T20:49:16.269Z,10.05
2023-02-19T21:17:46.593Z,10.15
2023-02-19T21:45:59.255Z,9.87
2023-02-19T22:14:15.584Z,9.68
2023-02-19T22:42:36.429Z,9.53
2023-02-19T23:10:57.238Z,9.63
2023-02-19T23:39:12.839Z,9.57
